sensor_id;sensor_type;location;lat;lon;timestamp;pressure;altitude;pressure_sealevel;temperature;humidity
68506;BME280;55509;50.680;17.942;2022-12-20T00:00:13;100580.79;;;-0.19;78.70
68506;BME280;55509;50.680;17.942;2022-12-20T00:03:34;100581.67;;;-0.18;78.30
68506;BME280;55509;50.680;17.942;2022-12-20T00:06:36;100582.08;;;-0.17;78.42
68506;BME280;55509;50.680;17.942;2022-12-20T00:09:38;100588.65;;;-0.16;78.32
68506;BME280;55509;50.680;17.942;2022-12-20T00:12:39;100589.56;;;-0.15;78.13
68506;BME280;55509;50.680;17.942;2022-12-20T00:15:41;100590.14;;;-0.13;77.72
68506;BME280;55509;50.680;17.942;2022-12-20T00:18:42;100589.76;;;-0.08;77.81
68506;BME280;55509;50.680;17.942;2022-12-20T00:21:45;100584.77;;;-0.07;77.59
68506;BME280;55509;50.680;17.942;2022-12-20T00:24:46;100592.91;;;-0.06;77.54
68506;BME280;55509;50.680;17.942;2022-12-20T00:27:48;100585.22;;;-0.04;77.53
68506;BME280;55509;50.680;17.942;2022-12-20T00:30:53;100572.52;;;-0.00;77.13
68506;BME280;55509;50.680;17.942;2022-12-20T00:33:55;100572.06;;;0.01;77.71
68506;BME280;55509;50.680;17.942;2022-12-20T00:36:57;100570.92;;;0.04;77.47
68506;BME280;55509;50.680;17.942;2022-12-20T00:39:59;100567.15;;;0.06;77.53
68506;BME280;55509;50.680;17.942;2022-12-20T00:43:00;100560.25;;;0.06;77.53
68506;BME280;55509;50.680;17.942;2022-12-20T00:46:02;100558.52;;;0.06;77.55
68506;BME280;55509;50.680;17.942;2022-12-20T00:49:03;100558.61;;;0.09;77.74
68506;BME280;55509;50.680;17.942;2022-12-20T00:52:05;100560.72;;;0.10;77.68
68506;BME280;55509;50.680;17.942;2022-12-20T00:55:07;100580.31;;;0.12;78.01
68506;BME280;55509;50.680;17.942;2022-12-20T00:58:08;100577.04;;;0.12;78.09
68506;BME280;55509;50.680;17.942;2022-12-20T01:01:30;100570.30;;;0.13;77.82
68506;BME280;55509;50.680;17.942;2022-12-20T01:04:31;100567.45;;;0.10;78.16
68506;BME280;55509;50.680;17.942;2022-12-20T01:07:33;100570.66;;;0.07;78.19
68506;BME280;55509;50.680;17.942;2022-12-20T01:10:34;100568.52;;;0.06;78.34
68506;BME280;55509;50.680;17.942;2022-12-20T01:13:37;100568.79;;;0.02;78.52
68506;BME280;55509;50.680;17.942;2022-12-20T01:16:40;100566.58;;;-0.03;78.69
68506;BME280;55509;50.680;17.942;2022-12-20T01:19:43;100566.02;;;-0.04;77.83
68506;BME280;55509;50.680;17.942;2022-12-20T01:22:44;100554.86;;;-0.07;78.50
68506;BME280;55509;50.680;17.942;2022-12-20T01:25:45;100555.77;;;-0.11;78.47
68506;BME280;55509;50.680;17.942;2022-12-20T01:28:51;100543.14;;;-0.12;77.92
68506;BME280;55509;50.680;17.942;2022-12-20T01:31:53;100535.81;;;-0.14;77.82
68506;BME280;55509;50.680;17.942;2022-12-20T01:34:55;100541.08;;;-0.17;77.66
68506;BME280;55509;50.680;17.942;2022-12-20T01:37:56;100534.77;;;-0.20;77.80
68506;BME280;55509;50.680;17.942;2022-12-20T01:40:58;100526.08;;;-0.22;77.56
68506;BME280;55509;50.680;17.942;2022-12-20T01:44:00;100523.70;;;-0.26;77.79
68506;BME280;55509;50.680;17.942;2022-12-20T01:47:02;100521.39;;;-0.29;77.52
68506;BME280;55509;50.680;17.942;2022-12-20T01:50:04;100516.15;;;-0.30;77.62
68506;BME280;55509;50.680;17.942;2022-12-20T01:53:06;100499.25;;;-0.34;77.37
68506;BME280;55509;50.680;17.942;2022-12-20T01:56:08;100511.76;;;-0.39;77.51
68506;BME280;55509;50.680;17.942;2022-12-20T01:59:11;100520.31;;;-0.42;77.41
68506;BME280;55509;50.680;17.942;2022-12-20T02:05:44;100518.88;;;-0.49;77.41
68506;BME280;55509;50.680;17.942;2022-12-20T02:08:46;100515.35;;;-0.51;77.74
68506;BME280;55509;50.680;17.942;2022-12-20T02:11:56;100523.23;;;-0.54;77.68
68506;BME280;55509;50.680;17.942;2022-12-20T02:18:26;100505.34;;;-0.63;77.82
68506;BME280;55509;50.680;17.942;2022-12-20T02:21:32;100508.40;;;-0.64;78.09
68506;BME280;55509;50.680;17.942;2022-12-20T02:27:45;100521.02;;;-0.64;77.94
68506;BME280;55509;50.680;17.942;2022-12-20T02:30:51;100517.36;;;-0.65;77.69
68506;BME280;55509;50.680;17.942;2022-12-20T02:33:55;100512.95;;;-0.63;77.97
68506;BME280;55509;50.680;17.942;2022-12-20T02:36:58;100511.45;;;-0.61;77.84
68506;BME280;55509;50.680;17.942;2022-12-20T02:39:59;100515.27;;;-0.60;77.79
68506;BME280;55509;50.680;17.942;2022-12-20T02:43:02;100513.19;;;-0.61;77.98
68506;BME280;55509;50.680;17.942;2022-12-20T02:46:25;100508.86;;;-0.61;77.92
68506;BME280;55509;50.680;17.942;2022-12-20T02:49:28;100507.11;;;-0.61;77.87
68506;BME280;55509;50.680;17.942;2022-12-20T02:52:31;100494.86;;;-0.61;78.13
68506;BME280;55509;50.680;17.942;2022-12-20T02:55:39;100488.73;;;-0.59;78.00
68506;BME280;55509;50.680;17.942;2022-12-20T03:01:44;100504.10;;;-0.59;77.97
68506;BME280;55509;50.680;17.942;2022-12-20T03:04:48;100503.77;;;-0.58;77.81
68506;BME280;55509;50.680;17.942;2022-12-20T03:07:50;100497.64;;;-0.55;77.74
68506;BME280;55509;50.680;17.942;2022-12-20T03:10:53;100493.69;;;-0.54;77.62
68506;BME280;55509;50.680;17.942;2022-12-20T03:13:55;100486.29;;;-0.53;77.80
68506;BME280;55509;50.680;17.942;2022-12-20T03:16:56;100477.38;;;-0.50;77.66
68506;BME280;55509;50.680;17.942;2022-12-20T03:19:58;100476.72;;;-0.49;77.64
68506;BME280;55509;50.680;17.942;2022-12-20T03:23:00;100470.88;;;-0.48;77.36
68506;BME280;55509;50.680;17.942;2022-12-20T03:26:01;100460.08;;;-0.45;76.98
68506;BME280;55509;50.680;17.942;2022-12-20T03:29:03;100449.61;;;-0.43;77.30
68506;BME280;55509;50.680;17.942;2022-12-20T03:32:05;100443.06;;;-0.42;77.19
68506;BME280;55509;50.680;17.942;2022-12-20T03:35:07;100439.33;;;-0.39;76.66
68506;BME280;55509;50.680;17.942;2022-12-20T03:38:09;100436.84;;;-0.36;76.74
68506;BME280;55509;50.680;17.942;2022-12-20T03:41:10;100434.63;;;-0.34;76.64
68506;BME280;55509;50.680;17.942;2022-12-20T03:44:12;100432.21;;;-0.35;76.63
68506;BME280;55509;50.680;17.942;2022-12-20T03:47:13;100436.52;;;-0.35;76.58
68506;BME280;55509;50.680;17.942;2022-12-20T03:50:15;100438.92;;;-0.36;76.53
68506;BME280;55509;50.680;17.942;2022-12-20T03:53:16;100437.52;;;-0.36;76.91
68506;BME280;55509;50.680;17.942;2022-12-20T03:56:18;100431.23;;;-0.38;77.12
68506;BME280;55509;50.680;17.942;2022-12-20T03:59:19;100424.33;;;-0.38;76.93
68506;BME280;55509;50.680;17.942;2022-12-20T04:02:21;100416.73;;;-0.38;77.07
68506;BME280;55509;50.680;17.942;2022-12-20T04:05:23;100414.61;;;-0.40;77.16
68506;BME280;55509;50.680;17.942;2022-12-20T04:08:24;100417.19;;;-0.40;77.38
68506;BME280;55509;50.680;17.942;2022-12-20T04:11:26;100420.64;;;-0.41;77.04
68506;BME280;55509;50.680;17.942;2022-12-20T04:14:27;100419.20;;;-0.42;77.20
68506;BME280;55509;50.680;17.942;2022-12-20T04:17:29;100423.34;;;-0.43;77.13
68506;BME280;55509;50.680;17.942;2022-12-20T04:20:30;100424.70;;;-0.43;76.98
68506;BME280;55509;50.680;17.942;2022-12-20T04:23:32;100429.16;;;-0.45;77.33
68506;BME280;55509;50.680;17.942;2022-12-20T04:26:34;100427.44;;;-0.45;77.20
68506;BME280;55509;50.680;17.942;2022-12-20T04:29:36;100427.80;;;-0.44;77.29
68506;BME280;55509;50.680;17.942;2022-12-20T04:32:37;100428.33;;;-0.44;77.47
68506;BME280;55509;50.680;17.942;2022-12-20T04:35:39;100423.11;;;-0.45;77.51
68506;BME280;55509;50.680;17.942;2022-12-20T04:38:40;100417.79;;;-0.44;77.29
68506;BME280;55509;50.680;17.942;2022-12-20T04:41:42;100412.84;;;-0.42;77.04
68506;BME280;55509;50.680;17.942;2022-12-20T04:44:43;100410.27;;;-0.41;77.28
68506;BME280;55509;50.680;17.942;2022-12-20T04:47:45;100415.86;;;-0.38;76.88
68506;BME280;55509;50.680;17.942;2022-12-20T04:50:47;100410.10;;;-0.34;76.82
68506;BME280;55509;50.680;17.942;2022-12-20T04:53:49;100406.84;;;-0.33;76.56
68506;BME280;55509;50.680;17.942;2022-12-20T04:56:50;100410.63;;;-0.34;76.42
68506;BME280;55509;50.680;17.942;2022-12-20T04:59:52;100411.38;;;-0.32;76.30
68506;BME280;55509;50.680;17.942;2022-12-20T05:02:53;100417.82;;;-0.30;76.46
68506;BME280;55509;50.680;17.942;2022-12-20T05:05:55;100420.07;;;-0.30;76.24
68506;BME280;55509;50.680;17.942;2022-12-20T05:08:56;100416.08;;;-0.31;76.65
68506;BME280;55509;50.680;17.942;2022-12-20T05:11:58;100419.11;;;-0.33;76.59
68506;BME280;55509;50.680;17.942;2022-12-20T05:14:59;100421.94;;;-0.31;76.45
68506;BME280;55509;50.680;17.942;2022-12-20T05:18:01;100420.94;;;-0.30;76.40
68506;BME280;55509;50.680;17.942;2022-12-20T05:21:03;100421.63;;;-0.30;76.68
68506;BME280;55509;50.680;17.942;2022-12-20T05:24:23;100424.44;;;-0.28;76.74
68506;BME280;55509;50.680;17.942;2022-12-20T05:27:43;100423.73;;;-0.28;76.87
68506;BME280;55509;50.680;17.942;2022-12-20T05:30:45;100413.16;;;-0.30;76.84
68506;BME280;55509;50.680;17.942;2022-12-20T05:33:46;100405.39;;;-0.30;77.04
68506;BME280;55509;50.680;17.942;2022-12-20T05:36:48;100409.65;;;-0.32;77.01
68506;BME280;55509;50.680;17.942;2022-12-20T05:39:50;100416.41;;;-0.31;77.32
68506;BME280;55509;50.680;17.942;2022-12-20T05:42:51;100420.40;;;-0.31;77.16
68506;BME280;55509;50.680;17.942;2022-12-20T05:45:52;100412.29;;;-0.30;77.04
68506;BME280;55509;50.680;17.942;2022-12-20T05:48:54;100410.85;;;-0.32;77.43
68506;BME280;55509;50.680;17.942;2022-12-20T05:51:55;100417.36;;;-0.34;77.36
68506;BME280;55509;50.680;17.942;2022-12-20T05:54:57;100425.81;;;-0.35;77.79
68506;BME280;55509;50.680;17.942;2022-12-20T05:57:58;100417.70;;;-0.35;77.57
68506;BME280;55509;50.680;17.942;2022-12-20T06:01:00;100410.23;;;-0.36;77.73
68506;BME280;55509;50.680;17.942;2022-12-20T06:04:03;100411.79;;;-0.35;78.11
68506;BME280;55509;50.680;17.942;2022-12-20T06:07:04;100412.40;;;-0.39;77.99
68506;BME280;55509;50.680;17.942;2022-12-20T06:10:06;100415.56;;;-0.43;78.18
68506;BME280;55509;50.680;17.942;2022-12-20T06:13:08;100426.55;;;-0.45;78.31
68506;BME280;55509;50.680;17.942;2022-12-20T06:16:10;100429.95;;;-0.48;78.50
68506;BME280;55509;50.680;17.942;2022-12-20T06:19:11;100431.11;;;-0.49;78.69
68506;BME280;55509;50.680;17.942;2022-12-20T06:22:14;100436.02;;;-0.53;78.81
68506;BME280;55509;50.680;17.942;2022-12-20T06:25:15;100441.02;;;-0.54;79.18
68506;BME280;55509;50.680;17.942;2022-12-20T06:28:17;100451.00;;;-0.55;79.10
68506;BME280;55509;50.680;17.942;2022-12-20T06:31:22;100443.69;;;-0.56;79.32
68506;BME280;55509;50.680;17.942;2022-12-20T06:34:23;100437.51;;;-0.55;79.47
68506;BME280;55509;50.680;17.942;2022-12-20T06:37:25;100445.70;;;-0.52;79.39
68506;BME280;55509;50.680;17.942;2022-12-20T06:40:26;100445.73;;;-0.51;79.47
68506;BME280;55509;50.680;17.942;2022-12-20T06:43:28;100444.70;;;-0.51;79.67
68506;BME280;55509;50.680;17.942;2022-12-20T06:46:29;100435.95;;;-0.49;79.48
68506;BME280;55509;50.680;17.942;2022-12-20T06:49:31;100428.32;;;-0.44;79.40
68506;BME280;55509;50.680;17.942;2022-12-20T06:52:32;100421.32;;;-0.41;79.20
68506;BME280;55509;50.680;17.942;2022-12-20T06:55:34;100424.00;;;-0.37;79.25
68506;BME280;55509;50.680;17.942;2022-12-20T06:58:35;100421.86;;;-0.34;79.09
68506;BME280;55509;50.680;17.942;2022-12-20T07:01:37;100415.77;;;-0.29;79.14
68506;BME280;55509;50.680;17.942;2022-12-20T07:04:39;100412.26;;;-0.25;78.78
68506;BME280;55509;50.680;17.942;2022-12-20T07:07:40;100410.42;;;-0.22;78.76
68506;BME280;55509;50.680;17.942;2022-12-20T07:10:42;100409.89;;;-0.17;78.38
68506;BME280;55509;50.680;17.942;2022-12-20T07:13:43;100412.58;;;-0.13;78.44
68506;BME280;55509;50.680;17.942;2022-12-20T07:16:45;100404.40;;;-0.08;78.51
68506;BME280;55509;50.680;17.942;2022-12-20T07:19:46;100395.16;;;-0.04;78.01
68506;BME280;55509;50.680;17.942;2022-12-20T07:22:48;100397.20;;;0.00;78.13
68506;BME280;55509;50.680;17.942;2022-12-20T07:25:56;100386.59;;;0.05;77.93
68506;BME280;55509;50.680;17.942;2022-12-20T07:28:58;100391.92;;;0.10;77.85
68506;BME280;55509;50.680;17.942;2022-12-20T07:31:59;100391.69;;;0.15;77.32
68506;BME280;55509;50.680;17.942;2022-12-20T07:35:01;100406.02;;;0.20;77.66
68506;BME280;55509;50.680;17.942;2022-12-20T07:38:02;100401.18;;;0.28;77.17
68506;BME280;55509;50.680;17.942;2022-12-20T07:41:07;100405.38;;;0.36;77.11
68506;BME280;55509;50.680;17.942;2022-12-20T07:44:09;100414.77;;;0.45;77.05
68506;BME280;55509;50.680;17.942;2022-12-20T07:47:10;100413.63;;;0.56;76.36
68506;BME280;55509;50.680;17.942;2022-12-20T07:50:12;100422.84;;;0.72;75.87
68506;BME280;55509;50.680;17.942;2022-12-20T07:53:13;100425.66;;;0.89;74.84
68506;BME280;55509;50.680;17.942;2022-12-20T07:56:15;100422.91;;;1.05;74.48
68506;BME280;55509;50.680;17.942;2022-12-20T07:59:19;100414.63;;;1.07;74.01
68506;BME280;55509;50.680;17.942;2022-12-20T08:02:24;100417.11;;;1.01;74.52
68506;BME280;55509;50.680;17.942;2022-12-20T08:05:27;100407.66;;;0.96;74.80
68506;BME280;55509;50.680;17.942;2022-12-20T08:08:31;100400.96;;;0.92;74.74
68506;BME280;55509;50.680;17.942;2022-12-20T08:11:33;100404.83;;;0.87;74.87
68506;BME280;55509;50.680;17.942;2022-12-20T08:14:36;100409.48;;;0.85;75.14
68506;BME280;55509;50.680;17.942;2022-12-20T08:17:38;100408.16;;;0.88;74.82
68506;BME280;55509;50.680;17.942;2022-12-20T08:20:39;100407.45;;;0.95;74.95
68506;BME280;55509;50.680;17.942;2022-12-20T08:23:41;100398.30;;;1.05;74.06
68506;BME280;55509;50.680;17.942;2022-12-20T08:26:42;100399.05;;;1.15;74.02
68506;BME280;55509;50.680;17.942;2022-12-20T08:29:44;100390.41;;;1.25;73.45
68506;BME280;55509;50.680;17.942;2022-12-20T08:32:46;100390.59;;;1.33;73.11
68506;BME280;55509;50.680;17.942;2022-12-20T08:35:55;100377.17;;;1.38;73.20
68506;BME280;55509;50.680;17.942;2022-12-20T08:38:56;100375.81;;;1.39;73.09
68506;BME280;55509;50.680;17.942;2022-12-20T08:41:58;100371.50;;;1.40;72.45
68506;BME280;55509;50.680;17.942;2022-12-20T08:45:00;100372.36;;;1.40;72.86
68506;BME280;55509;50.680;17.942;2022-12-20T08:48:01;100382.00;;;1.37;72.94
68506;BME280;55509;50.680;17.942;2022-12-20T08:51:04;100399.79;;;1.34;73.04
68506;BME280;55509;50.680;17.942;2022-12-20T08:54:06;100406.91;;;1.35;73.16
68506;BME280;55509;50.680;17.942;2022-12-20T08:57:08;100409.16;;;1.35;73.27
68506;BME280;55509;50.680;17.942;2022-12-20T09:00:10;100406.21;;;1.34;73.07
68506;BME280;55509;50.680;17.942;2022-12-20T09:03:12;100409.59;;;1.39;73.31
68506;BME280;55509;50.680;17.942;2022-12-20T09:06:15;100409.04;;;1.45;73.07
68506;BME280;55509;50.680;17.942;2022-12-20T09:09:18;100404.27;;;1.50;72.79
68506;BME280;55509;50.680;17.942;2022-12-20T09:12:19;100387.72;;;1.53;72.31
68506;BME280;55509;50.680;17.942;2022-12-20T09:15:21;100386.65;;;1.62;72.24
68506;BME280;55509;50.680;17.942;2022-12-20T09:18:23;100385.56;;;1.77;72.27
68506;BME280;55509;50.680;17.942;2022-12-20T09:21:24;100387.02;;;2.00;71.76
68506;BME280;55509;50.680;17.942;2022-12-20T09:24:26;100384.35;;;2.26;70.86
68506;BME280;55509;50.680;17.942;2022-12-20T09:27:27;100385.17;;;2.55;69.20
68506;BME280;55509;50.680;17.942;2022-12-20T09:30:29;100387.32;;;2.59;68.88
68506;BME280;55509;50.680;17.942;2022-12-20T09:33:33;100376.85;;;2.45;68.70
68506;BME280;55509;50.680;17.942;2022-12-20T09:36:34;100364.45;;;2.30;69.45
68506;BME280;55509;50.680;17.942;2022-12-20T09:39:36;100362.85;;;2.27;69.59
68506;BME280;55509;50.680;17.942;2022-12-20T09:42:38;100362.45;;;2.35;69.10
68506;BME280;55509;50.680;17.942;2022-12-20T09:45:40;100363.77;;;2.52;68.61
68506;BME280;55509;50.680;17.942;2022-12-20T09:48:42;100367.34;;;2.70;67.93
68506;BME280;55509;50.680;17.942;2022-12-20T10:01:19;100319.11;;;2.99;66.55
68506;BME280;55509;50.680;17.942;2022-12-20T10:04:27;100321.08;;;3.05;66.36
68506;BME280;55509;50.680;17.942;2022-12-20T10:07:38;100334.52;;;3.09;66.32
68506;BME280;55509;50.680;17.942;2022-12-20T10:24:17;100314.55;;;3.11;65.46
68506;BME280;55509;50.680;17.942;2022-12-20T10:27:19;100298.21;;;3.10;65.48
68506;BME280;55509;50.680;17.942;2022-12-20T10:30:22;100298.98;;;3.17;65.44
68506;BME280;55509;50.680;17.942;2022-12-20T10:33:24;100281.36;;;3.26;65.10
68506;BME280;55509;50.680;17.942;2022-12-20T10:36:29;100273.43;;;3.32;64.74
68506;BME280;55509;50.680;17.942;2022-12-20T10:39:41;100263.11;;;3.43;64.74
68506;BME280;55509;50.680;17.942;2022-12-20T10:42:43;100274.53;;;3.73;63.93
68506;BME280;55509;50.680;17.942;2022-12-20T10:45:55;100266.48;;;4.09;63.43
68506;BME280;55509;50.680;17.942;2022-12-20T10:48:58;100284.77;;;4.32;62.13
68506;BME280;55509;50.680;17.942;2022-12-20T10:52:23;100296.41;;;4.53;62.01
68506;BME280;55509;50.680;17.942;2022-12-20T10:55:32;100290.19;;;4.65;61.35
68506;BME280;55509;50.680;17.942;2022-12-20T10:58:35;100288.20;;;4.83;60.71
68506;BME280;55509;50.680;17.942;2022-12-20T11:01:37;100293.12;;;4.90;59.43
68506;BME280;55509;50.680;17.942;2022-12-20T11:04:43;100285.59;;;4.83;59.06
68506;BME280;55509;50.680;17.942;2022-12-20T11:08:08;100287.48;;;4.80;59.22
68506;BME280;55509;50.680;17.942;2022-12-20T11:14:18;100288.17;;;4.77;59.64
68506;BME280;55509;50.680;17.942;2022-12-20T11:17:36;100285.88;;;4.73;59.76
68506;BME280;55509;50.680;17.942;2022-12-20T11:40:32;100288.69;;;2.98;64.68
68506;BME280;55509;50.680;17.942;2022-12-20T11:53:15;100280.11;;;2.31;67.38
68506;BME280;55509;50.680;17.942;2022-12-20T11:56:20;100280.84;;;2.21;67.61
68506;BME280;55509;50.680;17.942;2022-12-20T11:59:30;100278.98;;;2.13;68.12
68506;BME280;55509;50.680;17.942;2022-12-20T12:02:41;100283.86;;;2.03;68.46
68506;BME280;55509;50.680;17.942;2022-12-20T12:05:48;100281.10;;;1.93;69.28
68506;BME280;55509;50.680;17.942;2022-12-20T12:08:59;100273.52;;;1.86;69.43
68506;BME280;55509;50.680;17.942;2022-12-20T12:12:14;100256.27;;;1.81;69.64
68506;BME280;55509;50.680;17.942;2022-12-20T12:18:31;100245.27;;;1.78;70.08
68506;BME280;55509;50.680;17.942;2022-12-20T12:21:39;100251.09;;;1.83;70.20
68506;BME280;55509;50.680;17.942;2022-12-20T12:24:45;100247.89;;;1.89;70.23
68506;BME280;55509;50.680;17.942;2022-12-20T12:27:56;100244.34;;;1.95;69.99
68506;BME280;55509;50.680;17.942;2022-12-20T12:31:00;100247.90;;;2.00;69.84
68506;BME280;55509;50.680;17.942;2022-12-20T12:40:26;100246.80;;;2.07;69.80
68506;BME280;55509;50.680;17.942;2022-12-20T12:46:37;100243.20;;;2.22;69.45
68506;BME280;55509;50.680;17.942;2022-12-20T12:49:59;100243.58;;;2.24;69.03
68506;BME280;55509;50.680;17.942;2022-12-20T12:53:06;100250.30;;;2.21;68.93
68506;BME280;55509;50.680;17.942;2022-12-20T13:02:35;100237.52;;;2.02;69.41
68506;BME280;55509;50.680;17.942;2022-12-20T13:05:49;100241.85;;;1.91;69.86
68506;BME280;55509;50.680;17.942;2022-12-20T13:15:45;100238.72;;;1.69;70.93
68506;BME280;55509;50.680;17.942;2022-12-20T13:18:56;100232.90;;;1.63;71.20
68506;BME280;55509;50.680;17.942;2022-12-20T13:25:27;100246.38;;;1.60;71.63
68506;BME280;55509;50.680;17.942;2022-12-20T13:31:31;100232.96;;;1.56;71.79
68506;BME280;55509;50.680;17.942;2022-12-20T13:34:53;100243.91;;;1.58;71.62
68506;BME280;55509;50.680;17.942;2022-12-20T13:38:01;100249.70;;;1.62;71.62
68506;BME280;55509;50.680;17.942;2022-12-20T13:44:34;100234.83;;;1.64;71.86
68506;BME280;55509;50.680;17.942;2022-12-20T13:47:38;100228.08;;;1.65;71.84
68506;BME280;55509;50.680;17.942;2022-12-20T13:50:48;100230.30;;;1.63;71.76
68506;BME280;55509;50.680;17.942;2022-12-20T13:56:54;100218.27;;;1.59;71.57
68506;BME280;55509;50.680;17.942;2022-12-20T13:59:56;100215.45;;;1.56;71.71
68506;BME280;55509;50.680;17.942;2022-12-20T14:02:59;100221.59;;;1.51;71.82
68506;BME280;55509;50.680;17.942;2022-12-20T14:06:02;100225.14;;;1.45;71.90
68506;BME280;55509;50.680;17.942;2022-12-20T14:09:25;100226.66;;;1.42;72.16
68506;BME280;55509;50.680;17.942;2022-12-20T14:12:28;100228.89;;;1.41;72.38
68506;BME280;55509;50.680;17.942;2022-12-20T14:15:32;100227.98;;;1.39;72.45
68506;BME280;55509;50.680;17.942;2022-12-20T14:18:34;100227.23;;;1.36;72.55
68506;BME280;55509;50.680;17.942;2022-12-20T14:21:37;100230.86;;;1.36;72.45
68506;BME280;55509;50.680;17.942;2022-12-20T14:24:40;100222.51;;;1.33;72.33
68506;BME280;55509;50.680;17.942;2022-12-20T14:27:43;100221.33;;;1.26;72.68
68506;BME280;55509;50.680;17.942;2022-12-20T14:30:45;100214.64;;;1.20;72.91
68506;BME280;55509;50.680;17.942;2022-12-20T14:33:47;100197.55;;;1.14;73.12
68506;BME280;55509;50.680;17.942;2022-12-20T14:36:50;100191.89;;;1.08;73.07
68506;BME280;55509;50.680;17.942;2022-12-20T14:39:57;100194.70;;;1.00;73.73
68506;BME280;55509;50.680;17.942;2022-12-20T14:42:59;100189.40;;;0.95;73.78
68506;BME280;55509;50.680;17.942;2022-12-20T14:46:15;100183.43;;;0.91;74.24
68506;BME280;55509;50.680;17.942;2022-12-20T14:55:34;100154.39;;;0.75;75.12
68506;BME280;55509;50.680;17.942;2022-12-20T14:58:36;100160.89;;;0.71;75.04
68506;BME280;55509;50.680;17.942;2022-12-20T15:01:38;100167.00;;;0.65;75.45
68506;BME280;55509;50.680;17.942;2022-12-20T15:04:42;100173.31;;;0.60;75.73
68506;BME280;55509;50.680;17.942;2022-12-20T15:07:45;100163.73;;;0.57;75.83
68506;BME280;55509;50.680;17.942;2022-12-20T15:13:58;100165.73;;;0.44;76.12
68506;BME280;55509;50.680;17.942;2022-12-20T15:16:59;100159.77;;;0.41;76.27
68506;BME280;55509;50.680;17.942;2022-12-20T15:20:01;100158.67;;;0.38;76.20
68506;BME280;55509;50.680;17.942;2022-12-20T15:23:07;100160.66;;;0.34;76.42
68506;BME280;55509;50.680;17.942;2022-12-20T15:26:14;100167.99;;;0.29;76.69
68506;BME280;55509;50.680;17.942;2022-12-20T15:29:20;100171.59;;;0.28;76.45
68506;BME280;55509;50.680;17.942;2022-12-20T15:32:23;100172.42;;;0.25;76.81
68506;BME280;55509;50.680;17.942;2022-12-20T15:35:26;100171.64;;;0.21;76.94
68506;BME280;55509;50.680;17.942;2022-12-20T15:38:29;100162.39;;;0.17;77.01
68506;BME280;55509;50.680;17.942;2022-12-20T15:41:31;100146.41;;;0.14;77.14
68506;BME280;55509;50.680;17.942;2022-12-20T15:44:33;100138.37;;;0.10;77.48
68506;BME280;55509;50.680;17.942;2022-12-20T15:47:37;100117.67;;;0.05;77.47
68506;BME280;55509;50.680;17.942;2022-12-20T15:50:38;100103.29;;;0.03;77.41
68506;BME280;55509;50.680;17.942;2022-12-20T15:53:40;100098.91;;;0.01;77.57
68506;BME280;55509;50.680;17.942;2022-12-20T15:56:42;100101.83;;;-0.01;77.49
68506;BME280;55509;50.680;17.942;2022-12-20T15:59:43;100104.70;;;-0.04;77.87
68506;BME280;55509;50.680;17.942;2022-12-20T16:02:45;100094.63;;;-0.06;77.84
68506;BME280;55509;50.680;17.942;2022-12-20T16:05:48;100093.59;;;-0.06;77.85
68506;BME280;55509;50.680;17.942;2022-12-20T16:08:51;100087.48;;;-0.08;77.78
68506;BME280;55509;50.680;17.942;2022-12-20T16:11:53;100101.80;;;-0.09;78.15
68506;BME280;55509;50.680;17.942;2022-12-20T16:14:54;100106.11;;;-0.10;77.74
68506;BME280;55509;50.680;17.942;2022-12-20T16:17:56;100104.94;;;-0.09;77.89
68506;BME280;55509;50.680;17.942;2022-12-20T16:20:57;100106.67;;;-0.09;78.05
68506;BME280;55509;50.680;17.942;2022-12-20T16:23:59;100124.95;;;-0.11;78.07
68506;BME280;55509;50.680;17.942;2022-12-20T16:27:00;100140.52;;;-0.10;78.13
68506;BME280;55509;50.680;17.942;2022-12-20T16:30:02;100147.65;;;-0.09;78.11
68506;BME280;55509;50.680;17.942;2022-12-20T16:33:03;100138.13;;;-0.09;77.82
68506;BME280;55509;50.680;17.942;2022-12-20T16:36:08;100125.80;;;-0.11;78.34
68506;BME280;55509;50.680;17.942;2022-12-20T16:39:11;100129.26;;;-0.11;78.21
68506;BME280;55509;50.680;17.942;2022-12-20T16:42:13;100120.25;;;-0.12;78.15
68506;BME280;55509;50.680;17.942;2022-12-20T16:45:16;100108.45;;;-0.14;78.25
68506;BME280;55509;50.680;17.942;2022-12-20T16:48:18;100099.24;;;-0.16;78.47
68506;BME280;55509;50.680;17.942;2022-12-20T16:54:22;100092.80;;;-0.18;78.31
68506;BME280;55509;50.680;17.942;2022-12-20T16:57:23;100092.11;;;-0.19;78.25
68506;BME280;55509;50.680;17.942;2022-12-20T17:00:25;100077.23;;;-0.19;78.48
68506;BME280;55509;50.680;17.942;2022-12-20T17:03:27;100066.58;;;-0.16;78.20
68506;BME280;55509;50.680;17.942;2022-12-20T17:06:28;100060.60;;;-0.13;77.94
68506;BME280;55509;50.680;17.942;2022-12-20T17:09:30;100064.44;;;-0.11;77.82
68506;BME280;55509;50.680;17.942;2022-12-20T17:12:31;100065.70;;;-0.08;77.90
68506;BME280;55509;50.680;17.942;2022-12-20T17:15:36;100063.54;;;-0.04;77.45
68506;BME280;55509;50.680;17.942;2022-12-20T17:18:39;100059.61;;;-0.02;77.40
68506;BME280;55509;50.680;17.942;2022-12-20T17:21:42;100064.52;;;0.01;77.25
68506;BME280;55509;50.680;17.942;2022-12-20T17:24:45;100074.44;;;0.04;77.14
68506;BME280;55509;50.680;17.942;2022-12-20T17:27:46;100083.30;;;0.06;77.25
68506;BME280;55509;50.680;17.942;2022-12-20T17:30:48;100075.48;;;0.05;77.45
68506;BME280;55509;50.680;17.942;2022-12-20T17:33:50;100063.73;;;0.05;77.47
68506;BME280;55509;50.680;17.942;2022-12-20T17:36:53;100070.35;;;0.07;77.15
68506;BME280;55509;50.680;17.942;2022-12-20T17:39:55;100076.40;;;0.07;77.49
68506;BME280;55509;50.680;17.942;2022-12-20T17:42:57;100069.44;;;0.05;77.31
68506;BME280;55509;50.680;17.942;2022-12-20T17:45:58;100068.91;;;0.05;77.33
68506;BME280;55509;50.680;17.942;2022-12-20T17:49:03;100075.44;;;0.03;77.55
68506;BME280;55509;50.680;17.942;2022-12-20T17:52:04;100082.92;;;-0.04;77.79